sensor_id;sensor_type;location;lat;lon;timestamp;pressure;altitude;pressure_sealevel;temperature;humidity
59194;BME280;44967;48.598;15.650;2023-05-21T00:01:03;98420.94;;;13.50;86.67
59194;BME280;44967;48.598;15.650;2023-05-21T00:03:31;98425.69;;;13.42;86.87
59194;BME280;44967;48.598;15.650;2023-05-21T00:05:58;98414.88;;;13.46;87.55
59194;BME280;44967;48.598;15.650;2023-05-21T00:08:25;98417.72;;;13.42;87.45
59194;BME280;44967;48.598;15.650;2023-05-21T00:10:52;98408.50;;;13.29;86.91
59194;BME280;44967;48.598;15.650;2023-05-21T00:13:17;98418.88;;;13.35;87.47
59194;BME280;44967;48.598;15.650;2023-05-21T00:15:43;98415.19;;;13.39;87.68
59194;BME280;44967;48.598;15.650;2023-05-21T00:18:09;98417.03;;;13.37;87.29
59194;BME280;44967;48.598;15.650;2023-05-21T00:20:34;98399.63;;;13.30;87.14
59194;BME280;44967;48.598;15.650;2023-05-21T00:23:01;98405.47;;;13.38;87.11
59194;BME280;44967;48.598;15.650;2023-05-21T00:25:27;98404.56;;;13.39;87.44
59194;BME280;44967;48.598;15.650;2023-05-21T00:27:54;98400.22;;;13.36;87.45
59194;BME280;44967;48.598;15.650;2023-05-21T00:30:19;98395.84;;;13.13;86.58
59194;BME280;44967;48.598;15.650;2023-05-21T00:32:45;98394.09;;;13.12;87.13
59194;BME280;44967;48.598;15.650;2023-05-21T00:35:11;98395.22;;;13.05;86.82
59194;BME280;44967;48.598;15.650;2023-05-21T00:37:37;98389.97;;;13.04;86.96
59194;BME280;44967;48.598;15.650;2023-05-21T00:40:04;98394.91;;;12.91;86.12
59194;BME280;44967;48.598;15.650;2023-05-21T00:42:32;98378.91;;;12.93;86.34
59194;BME280;44967;48.598;15.650;2023-05-21T00:44:58;98379.97;;;12.89;85.91
59194;BME280;44967;48.598;15.650;2023-05-21T00:47:24;98382.97;;;12.80;86.43
59194;BME280;44967;48.598;15.650;2023-05-21T00:49:53;98383.72;;;12.83;86.43
59194;BME280;44967;48.598;15.650;2023-05-21T00:52:19;98386.59;;;12.77;86.19
59194;BME280;44967;48.598;15.650;2023-05-21T00:54:48;98387.75;;;12.70;86.46
59194;BME280;44967;48.598;15.650;2023-05-21T00:57:16;98385.94;;;12.72;86.90
59194;BME280;44967;48.598;15.650;2023-05-21T00:59:46;98382.84;;;12.83;88.13
59194;BME280;44967;48.598;15.650;2023-05-21T01:02:13;98390.97;;;12.78;86.83
59194;BME280;44967;48.598;15.650;2023-05-21T01:04:43;98393.97;;;12.69;87.27
59194;BME280;44967;48.598;15.650;2023-05-21T01:07:09;98387.81;;;12.68;86.71
59194;BME280;44967;48.598;15.650;2023-05-21T01:09:35;98382.56;;;12.67;86.62
59194;BME280;44967;48.598;15.650;2023-05-21T01:12:01;98379.09;;;12.65;87.31
59194;BME280;44967;48.598;15.650;2023-05-21T01:14:28;98379.34;;;12.59;87.17
59194;BME280;44967;48.598;15.650;2023-05-21T01:16:55;98380.81;;;12.43;87.05
59194;BME280;44967;48.598;15.650;2023-05-21T01:19:22;98378.75;;;12.51;86.98
59194;BME280;44967;48.598;15.650;2023-05-21T01:21:51;98379.56;;;12.53;86.57
59194;BME280;44967;48.598;15.650;2023-05-21T01:24:18;98374.50;;;12.47;86.58
59194;BME280;44967;48.598;15.650;2023-05-21T01:26:44;98373.03;;;12.38;86.03
59194;BME280;44967;48.598;15.650;2023-05-21T01:29:12;98374.94;;;12.35;86.51
59194;BME280;44967;48.598;15.650;2023-05-21T01:32:03;98365.84;;;12.17;86.55
59194;BME280;44967;48.598;15.650;2023-05-21T01:34:43;98368.69;;;12.12;87.04
59194;BME280;44967;48.598;15.650;2023-05-21T01:37:16;98369.97;;;12.25;88.04
59194;BME280;44967;48.598;15.650;2023-05-21T01:39:57;98364.44;;;12.32;88.26
59194;BME280;44967;48.598;15.650;2023-05-21T01:42:24;98358.16;;;12.34;87.71
59194;BME280;44967;48.598;15.650;2023-05-21T01:44:54;98363.38;;;12.12;86.98
59194;BME280;44967;48.598;15.650;2023-05-21T01:47:22;98365.44;;;12.04;87.74
59194;BME280;44967;48.598;15.650;2023-05-21T01:49:50;98358.28;;;12.06;87.04
59194;BME280;44967;48.598;15.650;2023-05-21T01:52:17;98358.94;;;12.13;87.54
59194;BME280;44967;48.598;15.650;2023-05-21T01:54:43;98358.56;;;12.23;88.15
59194;BME280;44967;48.598;15.650;2023-05-21T01:57:09;98356.78;;;12.24;88.22
59194;BME280;44967;48.598;15.650;2023-05-21T01:59:35;98360.94;;;12.06;87.53
59194;BME280;44967;48.598;15.650;2023-05-21T02:02:01;98363.59;;;12.06;87.71
59194;BME280;44967;48.598;15.650;2023-05-21T02:04:26;98374.34;;;12.02;87.36
59194;BME280;44967;48.598;15.650;2023-05-21T02:06:52;98375.97;;;12.06;87.29
59194;BME280;44967;48.598;15.650;2023-05-21T02:09:19;98369.72;;;12.08;87.44
59194;BME280;44967;48.598;15.650;2023-05-21T02:11:45;98374.94;;;12.10;87.23
59194;BME280;44967;48.598;15.650;2023-05-21T02:14:11;98368.88;;;12.06;87.25
59194;BME280;44967;48.598;15.650;2023-05-21T02:16:39;98378.63;;;12.06;87.12
59194;BME280;44967;48.598;15.650;2023-05-21T02:19:05;98371.75;;;12.00;87.02
59194;BME280;44967;48.598;15.650;2023-05-21T02:21:31;98377.66;;;12.08;88.36
59194;BME280;44967;48.598;15.650;2023-05-21T02:23:56;98366.94;;;12.11;88.08
59194;BME280;44967;48.598;15.650;2023-05-21T02:26:22;98377.22;;;11.96;87.44
59194;BME280;44967;48.598;15.650;2023-05-21T02:28:48;98375.38;;;11.98;87.42
59194;BME280;44967;48.598;15.650;2023-05-21T02:31:13;98370.78;;;12.03;88.02
59194;BME280;44967;48.598;15.650;2023-05-21T02:33:39;98369.44;;;11.91;87.77
59194;BME280;44967;48.598;15.650;2023-05-21T02:36:06;98365.00;;;11.92;88.01
59194;BME280;44967;48.598;15.650;2023-05-21T02:38:38;98360.38;;;11.72;87.35
59194;BME280;44967;48.598;15.650;2023-05-21T02:41:09;98358.59;;;11.72;87.16
59194;BME280;44967;48.598;15.650;2023-05-21T02:43:35;98355.44;;;11.61;87.84
59194;BME280;44967;48.598;15.650;2023-05-21T02:46:01;98363.94;;;11.69;88.13
59194;BME280;44967;48.598;15.650;2023-05-21T02:48:27;98356.72;;;11.76;88.41
59194;BME280;44967;48.598;15.650;2023-05-21T02:50:52;98353.19;;;11.75;87.70
59194;BME280;44967;48.598;15.650;2023-05-21T02:53:18;98352.88;;;11.58;88.00
59194;BME280;44967;48.598;15.650;2023-05-21T02:55:44;98347.53;;;11.60;87.95
59194;BME280;44967;48.598;15.650;2023-05-21T02:58:10;98351.94;;;11.59;87.63
59194;BME280;44967;48.598;15.650;2023-05-21T03:00:38;98355.44;;;11.61;87.31
59194;BME280;44967;48.598;15.650;2023-05-21T03:03:03;98347.53;;;11.60;87.40
59194;BME280;44967;48.598;15.650;2023-05-21T03:05:29;98350.06;;;11.63;88.08
59194;BME280;44967;48.598;15.650;2023-05-21T03:07:55;98352.81;;;11.60;88.25
59194;BME280;44967;48.598;15.650;2023-05-21T03:10:20;98356.19;;;11.65;87.41
59194;BME280;44967;48.598;15.650;2023-05-21T03:12:47;98362.28;;;11.67;87.78
59194;BME280;44967;48.598;15.650;2023-05-21T03:15:12;98354.06;;;11.76;88.29
59194;BME280;44967;48.598;15.650;2023-05-21T03:17:39;98350.44;;;11.78;88.43
59194;BME280;44967;48.598;15.650;2023-05-21T03:20:09;98360.38;;;11.72;88.33
59194;BME280;44967;48.598;15.650;2023-05-21T03:22:42;98363.91;;;11.72;88.12
59194;BME280;44967;48.598;15.650;2023-05-21T03:25:09;98360.38;;;11.70;87.81
59194;BME280;44967;48.598;15.650;2023-05-21T03:27:37;98350.59;;;11.74;88.16
59194;BME280;44967;48.598;15.650;2023-05-21T03:30:03;98366.09;;;11.58;87.74
59194;BME280;44967;48.598;15.650;2023-05-21T03:32:29;98359.63;;;11.67;87.47
59194;BME280;44967;48.598;15.650;2023-05-21T03:34:58;98364.81;;;11.70;87.79
59194;BME280;44967;48.598;15.650;2023-05-21T03:37:24;98354.06;;;11.76;88.20
59194;BME280;44967;48.598;15.650;2023-05-21T03:39:50;98353.19;;;11.75;88.15
59194;BME280;44967;48.598;15.650;2023-05-21T03:42:16;98355.16;;;11.69;87.86
59194;BME280;44967;48.598;15.650;2023-05-21T03:44:42;98361.47;;;11.65;87.21
59194;BME280;44967;48.598;15.650;2023-05-21T03:47:08;98360.38;;;11.70;87.90
59194;BME280;44967;48.598;15.650;2023-05-21T03:49:34;98355.72;;;11.78;88.32
59194;BME280;44967;48.598;15.650;2023-05-21T03:51:59;98361.25;;;11.72;87.57
59194;BME280;44967;48.598;15.650;2023-05-21T03:54:25;98361.19;;;11.74;87.71
59194;BME280;44967;48.598;15.650;2023-05-21T03:56:51;98360.91;;;11.81;88.54
59194;BME280;44967;48.598;15.650;2023-05-21T03:59:16;98360.22;;;11.76;87.54
59194;BME280;44967;48.598;15.650;2023-05-21T04:01:42;98362.91;;;11.75;87.87
59194;BME280;44967;48.598;15.650;2023-05-21T04:04:08;98364.50;;;11.80;87.67
59194;BME280;44967;48.598;15.650;2023-05-21T04:06:34;98360.00;;;11.82;87.89
59194;BME280;44967;48.598;15.650;2023-05-21T04:08:59;98359.63;;;11.93;88.44
59194;BME280;44967;48.598;15.650;2023-05-21T04:11:25;98358.06;;;11.88;87.57
59194;BME280;44967;48.598;15.650;2023-05-21T04:13:51;98357.44;;;11.81;88.30
59194;BME280;44967;48.598;15.650;2023-05-21T04:16:17;98353.75;;;11.85;87.35
59194;BME280;44967;48.598;15.650;2023-05-21T04:18:44;98358.19;;;11.85;88.00
59194;BME280;44967;48.598;15.650;2023-05-21T04:21:10;98368.44;;;11.94;87.42
59194;BME280;44967;48.598;15.650;2023-05-21T04:23:36;98357.56;;;12.01;88.08
59194;BME280;44967;48.598;15.650;2023-05-21T04:26:01;98363.47;;;12.09;87.94
59194;BME280;44967;48.598;15.650;2023-05-21T04:28:27;98362.53;;;12.12;88.01
59194;BME280;44967;48.598;15.650;2023-05-21T04:30:53;98359.72;;;12.16;87.57
59194;BME280;44967;48.598;15.650;2023-05-21T04:33:21;98363.97;;;12.20;87.46
59194;BME280;44967;48.598;15.650;2023-05-21T04:35:49;98359.28;;;12.28;88.20
59194;BME280;44967;48.598;15.650;2023-05-21T04:38:18;98364.34;;;12.35;87.63
59194;BME280;44967;48.598;15.650;2023-05-21T04:40:50;98360.50;;;12.43;87.87
59194;BME280;44967;48.598;15.650;2023-05-21T04:43:16;98370.69;;;12.54;88.24
59194;BME280;44967;48.598;15.650;2023-05-21T04:45:42;98361.66;;;12.59;88.33
59194;BME280;44967;48.598;15.650;2023-05-21T04:48:08;98361.13;;;12.73;89.02
59194;BME280;44967;48.598;15.650;2023-05-21T04:50:34;98367.66;;;12.88;89.26
59194;BME280;44967;48.598;15.650;2023-05-21T04:53:00;98364.75;;;12.94;89.34
59194;BME280;44967;48.598;15.650;2023-05-21T04:55:27;98367.09;;;13.01;88.92
59194;BME280;44967;48.598;15.650;2023-05-21T04:57:53;98368.56;;;13.08;89.09
59194;BME280;44967;48.598;15.650;2023-05-21T05:00:19;98368.38;;;13.14;89.33
59194;BME280;44967;48.598;15.650;2023-05-21T05:02:45;98374.25;;;13.23;89.05
59194;BME280;44967;48.598;15.650;2023-05-21T05:05:10;98364.28;;;13.28;89.09
59194;BME280;44967;48.598;15.650;2023-05-21T05:07:36;98366.78;;;13.32;88.95
59194;BME280;44967;48.598;15.650;2023-05-21T05:10:02;98370.84;;;13.41;88.33
59194;BME280;44967;48.598;15.650;2023-05-21T05:12:28;98369.78;;;13.45;88.60
59194;BME280;44967;48.598;15.650;2023-05-21T05:14:53;98358.69;;;13.57;89.95
59194;BME280;44967;48.598;15.650;2023-05-21T05:17:19;98361.94;;;13.63;89.85
59194;BME280;44967;48.598;15.650;2023-05-21T05:19:45;98370.53;;;13.70;89.96
59194;BME280;44967;48.598;15.650;2023-05-21T05:22:11;98363.28;;;13.74;89.70
59194;BME280;44967;48.598;15.650;2023-05-21T05:24:37;98362.03;;;13.82;89.58
59194;BME280;44967;48.598;15.650;2023-05-21T05:27:02;98364.47;;;13.87;89.31
59194;BME280;44967;48.598;15.650;2023-05-21T05:29:28;98373.25;;;13.89;89.05
59194;BME280;44967;48.598;15.650;2023-05-21T05:31:54;98369.50;;;13.94;89.36
59194;BME280;44967;48.598;15.650;2023-05-21T05:34:19;98372.78;;;13.99;88.93
59194;BME280;44967;48.598;15.650;2023-05-21T05:36:45;98373.34;;;14.07;89.00
59194;BME280;44967;48.598;15.650;2023-05-21T05:39:11;98368.75;;;14.11;88.94
59194;BME280;44967;48.598;15.650;2023-05-21T05:41:37;98363.09;;;14.18;88.43
59194;BME280;44967;48.598;15.650;2023-05-21T05:44:02;98366.41;;;14.24;87.98
59194;BME280;44967;48.598;15.650;2023-05-21T05:46:28;98363.38;;;14.33;87.77
59194;BME280;44967;48.598;15.650;2023-05-21T05:48:54;98363.78;;;14.44;87.67
59194;BME280;44967;48.598;15.650;2023-05-21T05:51:20;98364.16;;;14.55;87.02
59194;BME280;44967;48.598;15.650;2023-05-21T05:53:45;98362.16;;;14.60;86.96
59194;BME280;44967;48.598;15.650;2023-05-21T05:56:11;98369.78;;;14.68;86.35
59194;BME280;44967;48.598;15.650;2023-05-21T05:58:37;98358.66;;;14.78;85.89
59194;BME280;44967;48.598;15.650;2023-05-21T06:01:02;98362.63;;;14.88;85.68
59194;BME280;44967;48.598;15.650;2023-05-21T06:03:28;98365.78;;;14.96;85.38
59194;BME280;44967;48.598;15.650;2023-05-21T06:05:54;98360.16;;;15.02;85.10
59194;BME280;44967;48.598;15.650;2023-05-21T06:08:19;98365.06;;;15.12;84.55
59194;BME280;44967;48.598;15.650;2023-05-21T06:10:45;98353.81;;;15.24;83.60
59194;BME280;44967;48.598;15.650;2023-05-21T06:13:11;98366.06;;;15.28;82.65
59194;BME280;44967;48.598;15.650;2023-05-21T06:15:37;98349.72;;;15.35;82.46
59194;BME280;44967;48.598;15.650;2023-05-21T06:18:03;98359.75;;;15.47;82.32
59194;BME280;44967;48.598;15.650;2023-05-21T06:20:29;98355.13;;;15.52;81.95
59194;BME280;44967;48.598;15.650;2023-05-21T06:22:55;98359.75;;;15.66;80.75
59194;BME280;44967;48.598;15.650;2023-05-21T06:25:20;98369.84;;;15.77;80.53
59194;BME280;44967;48.598;15.650;2023-05-21T06:27:47;98362.81;;;15.93;80.34
59194;BME280;44967;48.598;15.650;2023-05-21T06:30:12;98358.81;;;16.01;80.87
59194;BME280;44967;48.598;15.650;2023-05-21T06:32:38;98357.78;;;16.04;79.48
59194;BME280;44967;48.598;15.650;2023-05-21T06:35:04;98353.03;;;16.11;78.64
59194;BME280;44967;48.598;15.650;2023-05-21T06:37:30;98348.06;;;16.20;78.88
59194;BME280;44967;48.598;15.650;2023-05-21T06:39:56;98352.53;;;16.20;79.00
59194;BME280;44967;48.598;15.650;2023-05-21T06:42:21;98349.22;;;16.32;79.25
59194;BME280;44967;48.598;15.650;2023-05-21T06:44:47;98353.91;;;16.44;79.51
59194;BME280;44967;48.598;15.650;2023-05-21T06:47:13;98350.00;;;16.51;78.39
59194;BME280;44967;48.598;15.650;2023-05-21T06:49:39;98347.53;;;16.64;77.88
59194;BME280;44967;48.598;15.650;2023-05-21T06:52:05;98348.78;;;16.74;77.35
59194;BME280;44967;48.598;15.650;2023-05-21T06:54:30;98352.59;;;16.85;78.16
59194;BME280;44967;48.598;15.650;2023-05-21T06:56:57;98357.09;;;17.01;77.16
59194;BME280;44967;48.598;15.650;2023-05-21T06:59:22;98344.84;;;17.28;76.58
59194;BME280;44967;48.598;15.650;2023-05-21T07:01:48;98359.94;;;17.44;74.75
59194;BME280;44967;48.598;15.650;2023-05-21T07:04:14;98355.53;;;17.59;74.85
59194;BME280;44967;48.598;15.650;2023-05-21T07:06:39;98358.97;;;17.77;73.52
59194;BME280;44967;48.598;15.650;2023-05-21T07:09:05;98357.69;;;17.98;72.82
59194;BME280;44967;48.598;15.650;2023-05-21T07:11:31;98345.78;;;18.48;71.85
59194;BME280;44967;48.598;15.650;2023-05-21T07:13:58;98348.38;;;18.77;70.03
59194;BME280;44967;48.598;15.650;2023-05-21T07:16:28;98345.06;;;19.29;68.62
59194;BME280;44967;48.598;15.650;2023-05-21T07:18:53;98343.44;;;20.72;63.22
59194;BME280;44967;48.598;15.650;2023-05-21T07:21:20;98339.22;;;22.02;57.72
59194;BME280;44967;48.598;15.650;2023-05-21T07:23:45;98345.31;;;23.07;55.12
59194;BME280;44967;48.598;15.650;2023-05-21T07:26:11;98344.09;;;24.19;50.99
59194;BME280;44967;48.598;15.650;2023-05-21T07:28:37;98345.16;;;24.90;47.89
59194;BME280;44967;48.598;15.650;2023-05-21T07:31:02;98341.09;;;25.45;46.07
59194;BME280;44967;48.598;15.650;2023-05-21T07:33:28;98337.66;;;25.83;44.46
59194;BME280;44967;48.598;15.650;2023-05-21T07:35:54;98341.78;;;26.06;42.90
59194;BME280;44967;48.598;15.650;2023-05-21T07:38:19;98343.78;;;25.95;42.67
59194;BME280;44967;48.598;15.650;2023-05-21T07:40:45;98349.44;;;25.63;42.28
59194;BME280;44967;48.598;15.650;2023-05-21T07:43:14;98338.22;;;25.96;42.26
59194;BME280;44967;48.598;15.650;2023-05-21T07:45:39;98342.94;;;25.94;41.97
59194;BME280;44967;48.598;15.650;2023-05-21T07:48:05;98340.91;;;25.96;41.83
59194;BME280;44967;48.598;15.650;2023-05-21T07:50:31;98343.94;;;26.32;40.81
59194;BME280;44967;48.598;15.650;2023-05-21T07:52:57;98340.28;;;26.79;40.55
59194;BME280;44967;48.598;15.650;2023-05-21T07:55:23;98341.50;;;26.48;42.01
59194;BME280;44967;48.598;15.650;2023-05-21T07:57:49;98344.94;;;26.40;41.73
59194;BME280;44967;48.598;15.650;2023-05-21T08:00:17;98339.94;;;26.36;41.72
59194;BME280;44967;48.598;15.650;2023-05-21T08:02:43;98334.34;;;26.66;42.02
59194;BME280;44967;48.598;15.650;2023-05-21T08:05:09;98339.75;;;26.85;41.54
59194;BME280;44967;48.598;15.650;2023-05-21T08:07:35;98327.78;;;26.68;40.90
59194;BME280;44967;48.598;15.650;2023-05-21T08:10:00;98329.75;;;26.76;41.12
59194;BME280;44967;48.598;15.650;2023-05-21T08:12:26;98325.63;;;27.18;40.43
59194;BME280;44967;48.598;15.650;2023-05-21T08:14:52;98327.53;;;27.36;40.11
59194;BME280;44967;48.598;15.650;2023-05-21T08:17:17;98329.34;;;27.17;40.11
59194;BME280;44967;48.598;15.650;2023-05-21T08:19:43;98328.47;;;26.90;40.03
59194;BME280;44967;48.598;15.650;2023-05-21T08:22:09;98332.69;;;26.46;41.80
59194;BME280;44967;48.598;15.650;2023-05-21T08:24:35;98325.56;;;26.25;42.29
59194;BME280;44967;48.598;15.650;2023-05-21T08:27:00;98325.19;;;26.77;41.83
59194;BME280;44967;48.598;15.650;2023-05-21T08:29:26;98332.47;;;27.50;40.30
59194;BME280;44967;48.598;15.650;2023-05-21T08:31:52;98324.28;;;27.32;40.84
59194;BME280;44967;48.598;15.650;2023-05-21T08:34:17;98334.25;;;27.69;39.97
59194;BME280;44967;48.598;15.650;2023-05-21T08:36:44;98329.25;;;27.37;40.24
59194;BME280;44967;48.598;15.650;2023-05-21T08:39:10;98334.47;;;27.21;40.78
59194;BME280;44967;48.598;15.650;2023-05-21T08:41:38;98331.03;;;27.18;40.74
59194;BME280;44967;48.598;15.650;2023-05-21T08:44:09;98334.72;;;26.81;42.16
59194;BME280;44967;48.598;15.650;2023-05-21T08:46:38;98332.47;;;27.50;41.86
59194;BME280;44967;48.598;15.650;2023-05-21T08:49:10;98329.38;;;27.72;40.92
59194;BME280;44967;48.598;15.650;2023-05-21T08:51:36;98335.78;;;26.70;42.70
59194;BME280;44967;48.598;15.650;2023-05-21T08:54:04;98337.16;;;26.93;41.83
59194;BME280;44967;48.598;15.650;2023-05-21T08:56:30;98329.22;;;26.53;42.78
59194;BME280;44967;48.598;15.650;2023-05-21T08:58:57;98326.31;;;26.84;42.16
59194;BME280;44967;48.598;15.650;2023-05-21T09:01:24;98328.88;;;27.22;40.24
59194;BME280;44967;48.598;15.650;2023-05-21T09:03:51;98330.91;;;26.64;41.30
59194;BME280;44967;48.598;15.650;2023-05-21T09:06:18;98324.97;;;26.51;42.84
59194;BME280;44967;48.598;15.650;2023-05-21T09:08:49;98327.50;;;26.62;42.62
59194;BME280;44967;48.598;15.650;2023-05-21T09:11:18;98328.19;;;26.73;41.54
59194;BME280;44967;48.598;15.650;2023-05-21T09:13:45;98329.31;;;26.81;41.38
59194;BME280;44967;48.598;15.650;2023-05-21T09:16:10;98332.03;;;26.90;41.19
59194;BME280;44967;48.598;15.650;2023-05-21T09:18:36;98333.16;;;26.97;40.82
59194;BME280;44967;48.598;15.650;2023-05-21T09:21:27;98328.50;;;26.70;41.07
59194;BME280;44967;48.598;15.650;2023-05-21T09:23:54;98327.22;;;26.65;41.97
59194;BME280;44967;48.598;15.650;2023-05-21T09:26:22;98332.84;;;26.35;41.75
59194;BME280;44967;48.598;15.650;2023-05-21T09:28:50;98327.34;;;26.73;42.47
59194;BME280;44967;48.598;15.650;2023-05-21T09:31:16;98327.28;;;26.83;41.42
59194;BME280;44967;48.598;15.650;2023-05-21T09:33:46;98334.56;;;27.01;40.92
59194;BME280;44967;48.598;15.650;2023-05-21T09:36:17;98339.69;;;27.04;41.84
59194;BME280;44967;48.598;15.650;2023-05-21T09:38:45;98326.72;;;26.79;41.95
59194;BME280;44967;48.598;15.650;2023-05-21T09:41:12;98325.97;;;27.06;41.11
59194;BME280;44967;48.598;15.650;2023-05-21T09:43:41;98320.06;;;26.64;41.31
59194;BME280;44967;48.598;15.650;2023-05-21T09:46:07;98320.28;;;26.14;42.24
59194;BME280;44967;48.598;15.650;2023-05-21T09:48:40;98318.97;;;26.18;42.26
59194;BME280;44967;48.598;15.650;2023-05-21T09:53:55;98318.00;;;26.29;42.06
59194;BME280;44967;48.598;15.650;2023-05-21T09:56:25;98323.66;;;26.16;42.43
59194;BME280;44967;48.598;15.650;2023-05-21T09:59:02;98319.25;;;26.15;40.98
59194;BME280;44967;48.598;15.650;2023-05-21T10:01:31;98314.16;;;26.22;41.36
59194;BME280;44967;48.598;15.650;2023-05-21T10:04:05;98311.00;;;26.07;40.66
59194;BME280;44967;48.598;15.650;2023-05-21T10:06:35;98309.59;;;26.03;40.21
59194;BME280;44967;48.598;15.650;2023-05-21T10:09:06;98304.31;;;26.21;41.13
59194;BME280;44967;48.598;15.650;2023-05-21T10:11:36;98303.00;;;26.15;40.66
59194;BME280;44967;48.598;15.650;2023-05-21T10:14:08;98306.16;;;26.20;41.41
59194;BME280;44967;48.598;15.650;2023-05-21T10:16:35;98302.16;;;26.24;40.30
59194;BME280;44967;48.598;15.650;2023-05-21T10:19:01;98308.28;;;25.88;41.84
59194;BME280;44967;48.598;15.650;2023-05-21T10:21:29;98307.44;;;26.07;42.11
59194;BME280;44967;48.598;15.650;2023-05-21T10:23:56;98298.47;;;25.87;41.75
59194;BME280;44967;48.598;15.650;2023-05-21T10:26:23;98304.44;;;25.91;41.78
59194;BME280;44967;48.598;15.650;2023-05-21T10:28:54;98302.44;;;25.93;40.26
59194;BME280;44967;48.598;15.650;2023-05-21T10:31:21;98305.00;;;25.75;40.29
59194;BME280;44967;48.598;15.650;2023-05-21T10:33:47;98292.59;;;25.82;40.90
59194;BME280;44967;48.598;15.650;2023-05-21T10:36:15;98299.72;;;25.93;39.77
59194;BME280;44967;48.598;15.650;2023-05-21T10:38:43;98291.75;;;26.01;39.44
59194;BME280;44967;48.598;15.650;2023-05-21T10:41:10;98290.03;;;26.09;38.20
59194;BME280;44967;48.598;15.650;2023-05-21T10:51:56;98292.31;;;26.14;40.09
59194;BME280;44967;48.598;15.650;2023-05-21T10:59:42;98272.34;;;26.34;38.98
59194;BME280;44967;48.598;15.650;2023-05-21T11:02:12;98283.59;;;26.49;38.90
59194;BME280;44967;48.598;15.650;2023-05-21T11:04:39;98280.19;;;26.47;38.75
59194;BME280;44967;48.598;15.650;2023-05-21T11:07:07;98272.00;;;26.56;38.14
59194;BME280;44967;48.598;15.650;2023-05-21T11:09:33;98273.28;;;26.62;38.63
59194;BME280;44967;48.598;15.650;2023-05-21T11:11:59;98278.47;;;26.46;38.49
59194;BME280;44967;48.598;15.650;2023-05-21T11:14:39;98278.97;;;26.59;38.32
59194;BME280;44967;48.598;15.650;2023-05-21T11:19:33;98269.91;;;26.50;38.17
59194;BME280;44967;48.598;15.650;2023-05-21T11:22:00;98275.38;;;26.21;38.27
59194;BME280;44967;48.598;15.650;2023-05-21T11:24:25;98273.09;;;26.27;38.81
59194;BME280;44967;48.598;15.650;2023-05-21T11:29:36;98262.84;;;26.67;38.71
59194;BME280;44967;48.598;15.650;2023-05-21T11:32:06;98266.13;;;26.70;37.19
59194;BME280;44967;48.598;15.650;2023-05-21T11:34:41;98262.44;;;26.62;37.77
59194;BME280;44967;48.598;15.650;2023-05-21T11:39:43;98268.75;;;26.53;38.25
59194;BME280;44967;48.598;15.650;2023-05-21T11:42:09;98267.06;;;26.42;38.31
59194;BME280;44967;48.598;15.650;2023-05-21T11:44:45;98273.59;;;26.49;36.92
59194;BME280;44967;48.598;15.650;2023-05-21T11:47:16;98266.50;;;26.39;37.73
59194;BME280;44967;48.598;15.650;2023-05-21T11:49:45;98270.22;;;26.38;36.59
59194;BME280;44967;48.598;15.650;2023-05-21T11:52:12;98262.63;;;26.51;36.70
59194;BME280;44967;48.598;15.650;2023-05-21T11:54:43;98259.88;;;26.60;35.63
59194;BME280;44967;48.598;15.650;2023-05-21T11:57:11;98258.59;;;26.55;37.30
59194;BME280;44967;48.598;15.650;2023-05-21T11:59:40;98240.78;;;26.52;37.82
59194;BME280;44967;48.598;15.650;2023-05-21T12:02:06;98252.84;;;26.31;38.50
59194;BME280;44967;48.598;15.650;2023-05-21T12:04:34;98243.09;;;26.38;37.92
59194;BME280;44967;48.598;15.650;2023-05-21T12:07:06;98254.56;;;26.59;37.23
59194;BME280;44967;48.598;15.650;2023-05-21T12:09:42;98249.22;;;26.49;38.44
59194;BME280;44967;48.598;15.650;2023-05-21T12:12:09;98245.03;;;26.55;38.08
59194;BME280;44967;48.598;15.650;2023-05-21T12:14:35;98240.81;;;26.43;38.90
59194;BME280;44967;48.598;15.650;2023-05-21T12:17:05;98240.22;;;26.49;38.71
59194;BME280;44967;48.598;15.650;2023-05-21T12:19:35;98233.63;;;26.61;38.29
59194;BME280;44967;48.598;15.650;2023-05-21T12:22:02;98231.16;;;26.67;38.60
59194;BME280;44967;48.598;15.650;2023-05-21T12:24:29;98236.31;;;26.70;38.20
59194;BME280;44967;48.598;15.650;2023-05-21T12:26:56;98235.81;;;26.75;37.31
59194;BME280;44967;48.598;15.650;2023-05-21T12:29:33;98235.88;;;26.65;37.98
59194;BME280;44967;48.598;15.650;2023-05-21T12:32:00;98229.50;;;26.47;37.92
59194;BME280;44967;48.598;15.650;2023-05-21T12:34:43;98233.72;;;26.69;37.40
59194;BME280;44967;48.598;15.650;2023-05-21T12:37:29;98236.69;;;26.76;36.37
59194;BME280;44967;48.598;15.650;2023-05-21T12:40:01;98232.19;;;26.66;37.43
59194;BME280;44967;48.598;15.650;2023-05-21T12:42:32;98237.31;;;26.60;36.88
59194;BME280;44967;48.598;15.650;2023-05-21T12:45:08;98229.59;;;26.65;36.98
59194;BME280;44967;48.598;15.650;2023-05-21T12:47:34;98220.09;;;26.88;37.31
59194;BME280;44967;48.598;15.650;2023-05-21T12:50:01;98229.66;;;26.92;37.08
59194;BME280;44967;48.598;15.650;2023-05-21T12:52:28;98229.66;;;26.92;36.17
59194;BME280;44967;48.598;15.650;2023-05-21T12:54:56;98233.38;;;26.91;35.67
59194;BME280;44967;48.598;15.650;2023-05-21T12:57:26;98221.53;;;26.83;36.18
59194;BME280;44967;48.598;15.650;2023-05-21T12:59:55;98220.41;;;26.85;36.05
59194;BME280;44967;48.598;15.650;2023-05-21T13:02:33;98215.66;;;26.97;36.68
59194;BME280;44967;48.598;15.650;2023-05-21T13:05:02;98213.44;;;27.10;36.65
59194;BME280;44967;48.598;15.650;2023-05-21T13:07:30;98212.28;;;26.76;37.40
59194;BME280;44967;48.598;15.650;2023-05-21T13:09:56;98205.44;;;26.71;37.61
59194;BME280;44967;48.598;15.650;2023-05-21T13:12:26;98199.03;;;26.72;38.34
59194;BME280;44967;48.598;15.650;2023-05-21T13:14:54;98209.63;;;26.66;37.83